Time;durP1;ratioP1;P1;durP2;ratioP2;P2;SDS_P1;SDS_P2;PMS_P1;PMS_P2;Temp;Humidity;BMP_temperature;BMP_pressure;BME280_temperature;BME280_humidity;BME280_pressure;Samples;Min_cycle;Max_cycle;Signal;HPM_P1;HPM_P2
2022/12/22 03:26:18;;;;;;;0.43;0.43;;;;;;;9.65;100.00;100550.25;10498284;28;20041;-82
2022/12/22 03:31:19;;;;;;;0.50;0.40;;;;;;;9.59;100.00;100551.00;10466508;28;20385;-82
2022/12/22 03:36:21;;;;;;;0.82;0.73;;;;;;;9.60;100.00;100541.56;10498829;28;20399;-81
2022/12/22 03:46:43;;;;;;;0.93;0.73;;;;;;;9.61;100.00;100518.44;10480845;28;20052;-82
2022/12/22 03:51:49;;;;;;;0.77;0.60;;;;;;;9.32;100.00;100520.34;10481286;28;20045;-82
2022/12/22 03:56:52;;;;;;;2.05;0.75;;;;;;;9.21;100.00;100525.22;10423288;28;20393;-82
2022/12/22 04:01:54;;;;;;;1.38;0.73;;;;;;;9.46;100.00;100530.94;10470005;28;20098;-80
2022/12/22 04:06:57;;;;;;;1.42;0.38;;;;;;;9.67;100.00;100507.44;10481357;28;20043;-80
2022/12/22 04:17:22;;;;;;;0.77;0.65;;;;;;;9.29;100.00;100502.25;10497195;28;20499;-80
2022/12/22 04:22:29;;;;;;;1.30;0.75;;;;;;;9.56;100.00;100498.63;10478971;28;20058;-81
2022/12/22 04:27:37;;;;;;;1.65;1.08;;;;;;;9.71;100.00;100488.69;10480317;28;20143;-81
2022/12/22 04:32:38;;;;;;;3.00;0.93;;;;;;;9.65;100.00;100483.38;10480308;28;20052;-81
2022/12/22 04:37:40;;;;;;;0.50;0.43;;;;;;;9.33;100.00;100486.09;10487110;28;20064;-80
2022/12/22 04:42:46;;;;;;;1.45;1.00;;;;;;;9.26;100.00;100484.19;10516653;28;20139;-81
2022/12/22 04:47:51;;;;;;;0.95;0.82;;;;;;;9.30;100.00;100493.72;10493208;28;20048;-80
2022/12/22 04:52:58;;;;;;;0.20;0.20;;;;;;;9.17;100.00;100490.84;10480123;28;20060;-80
2022/12/22 04:57:59;;;;;;;3.67;1.42;;;;;;;9.20;100.00;100506.31;10536317;28;20479;-80
2022/12/22 05:03:01;;;;;;;0.85;0.75;;;;;;;9.64;100.00;100512.53;10494963;28;20110;-80
2022/12/22 05:08:04;;;;;;;2.67;1.10;;;;;;;9.66;100.00;100506.59;10480003;28;20098;-80
2022/12/22 05:13:06;;;;;;;1.13;0.77;;;;;;;9.93;100.00;100494.31;10466360;28;20047;-80
2022/12/22 05:18:07;;;;;;;3.10;0.30;;;;;;;9.98;100.00;100479.84;10492586;28;20041;-80
2022/12/22 05:23:09;;;;;;;0.52;0.32;;;;;;;9.89;100.00;100462.50;10497122;28;20044;-80
2022/12/22 05:28:10;;;;;;;0.47;0.32;;;;;;;10.06;100.00;100449.97;10501031;28;20487;-80
2022/12/22 05:33:12;;;;;;;1.25;1.02;;;;;;;10.11;100.00;100434.63;10470828;28;20048;-80
2022/12/22 05:38:14;;;;;;;0.20;0.20;;;;;;;9.62;100.00;100437.03;10470007;28;20560;-80
2022/12/22 05:43:16;;;;;;;0.57;0.57;;;;;;;9.82;100.00;100440.03;10479721;28;20041;-80
2022/12/22 05:48:18;;;;;;;1.33;0.75;;;;;;;10.05;100.00;100437.09;10487730;28;20044;-80
2022/12/22 05:53:28;;;;;;;0.10;0.10;;;;;;;10.08;100.00;100427.72;10488421;28;20480;-80
2022/12/22 05:58:36;;;;;;;0.65;0.65;;;;;;;9.84;100.00;100428.94;10487228;28;20048;-80
2022/12/22 06:03:37;;;;;;;0.00;0.00;;;;;;;9.93;100.00;100424.84;10486722;28;20049;-81
2022/12/22 06:08:39;;;;;;;0.40;0.30;;;;;;;9.76;100.00;100433.06;10486541;28;20055;-81
2022/12/22 06:13:41;;;;;;;0.85;0.47;;;;;;;9.88;100.00;100435.03;10486608;28;20041;-81
2022/12/22 06:18:42;;;;;;;0.80;0.60;;;;;;;9.74;100.00;100447.59;10486120;28;20044;-81
2022/12/22 06:23:44;;;;;;;0.68;0.68;;;;;;;9.94;100.00;100455.75;10485826;28;20101;-80
2022/12/22 06:28:46;;;;;;;1.35;0.55;;;;;;;9.51;100.00;100458.22;10503597;28;20050;-81
2022/12/22 06:33:48;;;;;;;0.47;0.47;;;;;;;9.61;100.00;100491.88;10485443;28;20033;-80
2022/12/22 06:38:50;;;;;;;0.73;0.47;;;;;;;9.84;100.00;100503.56;10484646;28;20048;-80
2022/12/22 06:43:51;;;;;;;0.45;0.22;;;;;;;9.71;100.00;100506.69;10501481;28;20098;-80
2022/12/22 06:48:56;;;;;;;0.10;0.10;;;;;;;9.65;100.00;100520.28;10468226;28;20041;-80
2022/12/22 06:53:57;;;;;;;1.35;0.85;;;;;;;9.78;100.00;100525.69;10491539;28;20048;-80
2022/12/22 06:59:03;;;;;;;0.88;0.75;;;;;;;9.69;100.00;100529.78;10483526;28;20050;-80
2022/12/22 07:04:05;;;;;;;1.42;0.45;;;;;;;9.71;100.00;100549.53;10469854;28;20491;-80
2022/12/22 07:09:06;;;;;;;4.65;1.35;;;;;;;9.78;100.00;100560.03;10501762;28;20090;-80
2022/12/22 07:14:11;;;;;;;0.20;0.20;;;;;;;9.71;100.00;100571.00;10452765;28;20054;-80
2022/12/22 07:19:12;;;;;;;0.70;0.57;;;;;;;9.70;100.00;100587.28;10483984;28;20056;-80
2022/12/22 07:24:21;;;;;;;1.50;1.10;;;;;;;9.63;100.00;100595.66;10482718;28;20098;-80
2022/12/22 07:29:23;;;;;;;1.70;1.02;;;;;;;9.70;100.00;100595.00;10498397;28;20037;-80
2022/12/22 07:34:25;;;;;;;1.40;0.75;;;;;;;9.71;100.00;100601.00;10457486;28;20044;-80
2022/12/22 07:39:26;;;;;;;0.70;0.52;;;;;;;9.39;100.00;100591.66;10481768;28;20094;-80
2022/12/22 07:44:28;;;;;;;1.92;1.00;;;;;;;9.22;100.00;100591.22;10482155;28;20044;-80
2022/12/22 07:54:49;;;;;;;1.42;0.82;;;;;;;9.58;100.00;100600.69;10499117;28;20131;-80
2022/12/22 07:59:52;;;;;;;0.88;0.50;;;;;;;9.47;100.00;100592.72;10481279;28;20412;-80
2022/12/22 08:04:53;;;;;;;0.93;0.73;;;;;;;9.58;100.00;100610.97;10467801;28;20114;-80
2022/12/22 08:09:55;;;;;;;0.45;0.45;;;;;;;9.58;100.00;100630.66;10480451;28;20044;-80
2022/12/22 08:14:58;;;;;;;2.70;0.80;;;;;;;9.55;100.00;100625.47;10463501;28;20055;-80
2022/12/22 08:20:00;;;;;;;0.57;0.55;;;;;;;9.59;100.00;100632.41;10493900;28;20385;-80
2022/12/22 08:25:02;;;;;;;0.45;0.43;;;;;;;9.47;100.00;100658.69;10478563;28;20127;-80
2022/12/22 08:30:05;;;;;;;1.30;0.65;;;;;;;9.34;100.00;100688.34;10480098;28;20131;-80
2022/12/22 08:35:09;;;;;;;0.63;0.35;;;;;;;9.49;100.00;100714.47;10463046;28;20040;-81
2022/12/22 08:40:16;;;;;;;1.77;0.93;;;;;;;9.55;100.00;100724.06;10479162;28;20118;-79
2022/12/22 08:45:18;;;;;;;0.28;0.25;;;;;;;9.49;100.00;100729.91;10464529;28;20055;-79
2022/12/22 08:50:20;;;;;;;0.70;0.38;;;;;;;9.63;100.00;100748.28;10498292;28;20471;-80
2022/12/22 08:55:22;;;;;;;2.17;1.02;;;;;;;9.83;100.00;100735.97;10487941;28;20052;-80
2022/12/22 09:00:24;;;;;;;2.35;1.30;;;;;;;9.89;100.00;100729.22;10469640;28;20091;-80
2022/12/22 09:05:29;;;;;;;3.42;0.82;;;;;;;9.88;100.00;100732.63;10478704;28;20045;-80
2022/12/22 09:10:30;;;;;;;0.98;0.90;;;;;;;10.04;100.00;100721.91;10465340;28;20090;-81
2022/12/22 09:15:32;;;;;;;0.98;0.88;;;;;;;9.83;100.00;100717.94;10448914;28;20053;-80
2022/12/22 09:20:33;;;;;;;1.15;0.70;;;;;;;9.83;100.00;100723.09;10452292;28;20075;-79
2022/12/22 09:25:35;;;;;;;0.43;0.40;;;;;;;9.80;100.00;100730.72;10474471;28;20048;-79
2022/12/22 09:30:36;;;;;;;0.80;0.65;;;;;;;9.76;100.00;100734.06;10463980;28;20504;-80
2022/12/22 09:35:42;;;;;;;0.63;0.55;;;;;;;9.83;100.00;100755.66;10461534;28;20052;-80
2022/12/22 09:41:14;;;;;;;1.85;1.30;;;;;;;9.79;100.00;100762.44;10474661;28;20400;-80
2022/12/22 09:46:22;;;;;;;2.90;0.95;;;;;;;9.55;100.00;100772.91;10486926;28;20082;-80
2022/12/22 09:51:26;;;;;;;0.68;0.60;;;;;;;9.59;100.00;100784.16;10478017;28;20230;-79
2022/12/22 09:56:29;;;;;;;1.55;0.80;;;;;;;9.58;100.00;100777.28;10476672;28;20041;-80
2022/12/22 10:02:10;;;;;;;1.40;0.60;;;;;;;9.59;100.00;100772.19;10471062;28;20048;-80
2022/12/22 10:07:27;;;;;;;0.75;0.75;;;;;;;9.47;100.00;100783.00;10458040;28;20045;-80
2022/12/22 10:12:30;;;;;;;1.40;1.30;;;;;;;9.68;100.00;100803.28;10455132;28;20492;-80
2022/12/22 10:17:33;;;;;;;2.70;1.73;;;;;;;9.61;100.00;100795.38;10485865;28;20094;-80
2022/12/22 10:23:01;;;;;;;1.20;0.98;;;;;;;9.56;100.00;100786.66;10491678;28;20046;-81
2022/12/22 10:28:18;;;;;;;1.30;0.65;;;;;;;9.70;100.00;100795.66;10449319;28;20053;-80
2022/12/22 10:33:20;;;;;;;1.00;0.68;;;;;;;9.80;100.00;100797.63;10461102;28;20088;-80
2022/12/22 10:38:28;;;;;;;1.58;1.48;;;;;;;9.83;100.00;100790.00;10481076;28;20045;-80
2022/12/22 10:43:36;;;;;;;2.13;1.40;;;;;;;10.13;100.00;100780.44;10477067;28;20128;-79
2022/12/22 10:48:39;;;;;;;2.90;1.58;;;;;;;10.37;100.00;100785.41;10482454;28;20608;-79
2022/12/22 10:53:49;;;;;;;6.45;1.52;;;;;;;10.92;100.00;100779.78;10468078;28;20063;-79
2022/12/22 10:58:55;;;;;;;2.85;1.92;;;;;;;10.81;100.00;100702.25;10484504;28;20135;-79
2022/12/22 11:04:33;;;;;;;0.98;0.90;;;;;;;11.08;100.00;100673.59;10484879;28;20048;-80
2022/12/22 11:09:37;;;;;;;10.77;1.60;;;;;;;11.22;100.00;100655.84;10457189;28;20033;-80
2022/12/22 11:14:53;;;;;;;1.20;1.02;;;;;;;11.32;100.00;100645.69;10463531;28;20044;-79
2022/12/22 11:20:34;;;;;;;7.30;2.60;;;;;;;11.15;100.00;100637.63;10480312;28;20410;-83
2022/12/22 11:25:48;;;;;;;1.85;0.80;;;;;;;11.34;100.00;100634.56;10469796;28;20106;-83
2022/12/22 11:30:56;;;;;;;1.65;1.35;;;;;;;10.92;100.00;100640.63;10457612;28;20043;-83
2022/12/22 11:36:03;;;;;;;3.70;1.55;;;;;;;11.55;100.00;100643.53;10487175;28;20401;-83
2022/12/22 11:41:33;;;;;;;3.70;1.30;;;;;;;11.42;100.00;100627.84;10486306;28;20048;-84
2022/12/22 11:46:58;;;;;;;1.60;1.23;;;;;;;11.16;100.00;100613.59;10522613;28;20053;-82
2022/12/22 11:52:16;;;;;;;2.47;1.13;;;;;;;11.72;100.00;100610.25;10505515;28;20425;-83
2022/12/22 11:57:41;;;;;;;3.55;1.23;;;;;;;11.72;100.00;100615.44;10478599;28;20044;-83
2022/12/22 12:03:16;;;;;;;0.75;0.73;;;;;;;10.82;100.00;100616.38;10484295;28;20036;-83
2022/12/22 12:08:36;;;;;;;1.25;0.65;;;;;;;11.34;100.00;100621.66;10486272;28;20179;-83
2022/12/22 12:13:43;;;;;;;;;;;;;;;11.32;100.00;100628.50;10495709;28;20040;-83
2022/12/22 12:19:15;;;;;;;1.58;1.20;;;;;;;11.02;100.00;100621.06;10483783;28;20417;-83
2022/12/22 12:24:56;;;;;;;7.18;1.02;;;;;;;11.43;100.00;100624.41;10491797;28;20419;-83
2022/12/22 12:30:09;;;;;;;0.82;0.35;;;;;;;11.16;100.00;100629.06;10471438;28;20053;-83
2022/12/22 12:36:11;;;;;;;1.15;0.85;;;;;;;10.98;100.00;100627.88;10476405;28;20076;-82
2022/12/22 12:41:22;;;;;;;;;;;;;;;10.81;100.00;100612.03;10484308;28;20472;-83
2022/12/22 12:47:04;;;;;;;0.75;0.70;;;;;;;10.81;100.00;100608.63;10495589;28;19966;-83
2022/12/22 12:52:07;;;;;;;1.73;1.50;;;;;;;10.63;100.00;100613.44;10399782;28;20178;-83
2022/12/22 12:57:23;;;;;;;1.90;0.85;;;;;;;10.21;100.00;100633.91;10482895;28;20036;-82
2022/12/22 13:02:28;;;;;;;3.10;1.65;;;;;;;10.39;100.00;100639.50;10488899;28;20040;-79
2022/12/22 13:08:15;;;;;;;0.95;0.57;;;;;;;10.28;100.00;100625.50;10462641;28;20407;-79
2022/12/22 13:13:25;;;;;;;0.47;0.47;;;;;;;10.36;100.00;100623.97;10459665;28;20048;-80
2022/12/22 13:18:33;;;;;;;2.95;1.05;;;;;;;9.82;100.00;100636.44;10455696;28;20079;-79
2022/12/22 13:23:46;;;;;;;0.65;0.52;;;;;;;9.58;100.00;100653.81;10472523;28;20132;-80
2022/12/22 13:29:30;;;;;;;1.42;0.75;;;;;;;9.70;100.00;100677.31;10469673;28;20131;-81
2022/12/22 13:34:41;;;;;;;1.17;1.00;;;;;;;9.94;100.00;100681.34;10455807;28;20044;-79
2022/12/22 13:40:18;;;;;;;7.95;1.52;;;;;;;9.80;100.00;100670.69;10476758;28;20441;-80
2022/12/22 13:45:42;;;;;;;1.02;0.68;;;;;;;9.83;100.00;100679.34;10452110;28;20492;-80
2022/12/22 13:50:49;;;;;;;2.00;1.40;;;;;;;9.80;100.00;100676.69;10460151;28;20438;-80
2022/12/22 13:55:51;;;;;;;1.38;0.80;;;;;;;9.65;100.00;100677.19;10456670;28;20040;-79
2022/12/22 14:01:17;;;;;;;4.90;1.20;;;;;;;9.58;100.00;100672.72;10454519;28;20052;-79
2022/12/22 14:06:31;;;;;;;2.08;1.20;;;;;;;9.52;100.00;100678.56;10464497;28;20048;-79
2022/12/22 14:11:33;;;;;;;3.83;1.08;;;;;;;9.46;100.00;100678.41;10476167;28;20048;-79
2022/12/22 14:16:41;;;;;;;0.90;0.55;;;;;;;9.45;100.00;100668.94;10497105;28;20098;-80
2022/12/22 14:21:46;;;;;;;0.50;0.47;;;;;;;9.43;100.00;100662.88;10478357;28;20045;-80
2022/12/22 14:26:49;;;;;;;1.80;1.65;;;;;;;9.21;100.00;100661.44;10481541;28;20044;-80
2022/12/22 14:31:57;;;;;;;2.42;1.15;;;;;;;9.15;100.00;100651.00;10504088;28;20040;-80
2022/12/22 14:37:00;;;;;;;1.15;0.60;;;;;;;9.11;100.00;100655.19;10485171;28;20059;-80
2022/12/22 14:42:04;;;;;;;1.77;1.23;;;;;;;9.12;100.00;100651.75;10467421;28;20037;-80
2022/12/22 14:47:18;;;;;;;6.75;1.70;;;;;;;8.93;100.00;100659.78;10470343;28;20580;-80
2022/12/22 14:52:31;;;;;;;1.48;1.00;;;;;;;9.11;100.00;100664.56;10508936;28;20070;-80
2022/12/22 14:57:41;;;;;;;0.40;0.40;;;;;;;9.12;100.00;100671.47;10486995;28;20106;-80
2022/12/22 15:02:49;;;;;;;1.00;0.90;;;;;;;9.04;100.00;100673.81;10496646;28;20047;-80
2022/12/22 15:07:55;;;;;;;2.95;1.83;;;;;;;9.06;100.00;100674.72;10479179;28;20392;-80
2022/12/22 15:13:22;;;;;;;4.65;1.48;;;;;;;9.14;100.00;100674.94;10467378;28;20547;-80
2022/12/22 15:18:26;;;;;;;0.55;0.50;;;;;;;8.97;100.00;100667.63;10479290;28;20044;-81
2022/12/22 15:23:28;;;;;;;1.23;1.13;;;;;;;8.92;100.00;100668.31;10495839;28;20049;-80
2022/12/22 15:28:30;;;;;;;3.03;1.48;;;;;;;8.76;100.00;100667.88;10497029;28;20571;-80
2022/12/22 15:33:33;;;;;;;0.52;0.43;;;;;;;8.81;100.00;100681.75;10462051;28;20045;-81
2022/12/22 15:38:37;;;;;;;1.88;1.42;;;;;;;8.94;100.00;100682.09;10478888;28;20514;-80
2022/12/22 15:43:39;;;;;;;1.20;1.10;;;;;;;8.93;100.00;100691.50;10476578;28;20048;-80
2022/12/22 15:48:59;;;;;;;1.33;1.20;;;;;;;8.63;100.00;100701.72;10480950;28;20056;-81
2022/12/22 15:54:03;;;;;;;6.45;2.90;;;;;;;8.74;100.00;100700.38;10477649;28;20064;-80
2022/12/22 15:59:13;;;;;;;2.78;2.15;;;;;;;8.93;100.00;100706.03;10484232;28;20052;-80
2022/12/22 16:04:16;;;;;;;3.97;3.10;;;;;;;8.77;100.00;100707.28;10477667;28;20046;-80
2022/12/22 16:09:27;;;;;;;10.80;2.45;;;;;;;8.77;100.00;100720.97;10475730;28;20044;-80
2022/12/22 16:14:29;;;;;;;6.22;1.90;;;;;;;8.65;100.00;100720.63;10463353;28;20048;-80
2022/12/22 16:19:44;;;;;;;4.43;2.25;;;;;;;8.72;100.00;100717.41;10473575;28;20102;-80
2022/12/22 16:24:47;;;;;;;1.67;1.05;;;;;;;8.55;100.00;100717.75;10475386;28;20044;-80
2022/12/22 16:29:52;;;;;;;1.38;1.25;;;;;;;8.62;100.00;100710.25;10472472;28;20106;-80
2022/12/22 16:35:16;;;;;;;2.22;1.45;;;;;;;8.60;100.00;100693.94;10473501;28;20098;-80
2022/12/22 16:40:18;;;;;;;5.50;2.47;;;;;;;8.54;100.00;100685.19;10456480;28;20126;-80
2022/12/22 16:45:22;;;;;;;1.75;1.15;;;;;;;8.66;100.00;100678.72;10477467;28;20500;-80
2022/12/22 16:50:31;;;;;;;2.03;1.13;;;;;;;8.74;100.00;100677.25;10458678;28;20071;-80
2022/12/22 16:55:35;;;;;;;3.58;2.08;;;;;;;8.69;100.00;100681.34;10459742;28;20044;-80
2022/12/22 17:00:39;;;;;;;2.45;1.70;;;;;;;8.60;100.00;100686.22;10472934;28;20044;-80
2022/12/22 17:05:45;;;;;;;1.75;1.25;;;;;;;8.61;100.00;100676.00;10468981;28;20052;-79
2022/12/22 17:10:48;;;;;;;6.05;1.20;;;;;;;8.57;100.00;100662.19;10474035;28;20480;-79
2022/12/22 17:15:49;;;;;;;2.92;2.42;;;;;;;8.56;100.00;100675.84;10493556;28;20075;-80
2022/12/22 17:20:55;;;;;;;6.60;4.68;;;;;;;8.52;100.00;100661.19;10519659;28;20239;-80
2022/12/22 17:26:04;;;;;;;4.82;3.65;;;;;;;8.62;100.00;100653.75;10486571;28;20523;-79
2022/12/22 17:31:17;;;;;;;5.72;4.78;;;;;;;8.52;100.00;100647.47;10472267;28;20464;-80
2022/12/22 17:36:29;;;;;;;3.80;2.80;;;;;;;8.69;100.00;100650.53;10473282;28;20110;-80
2022/12/22 17:41:31;;;;;;;1.92;1.63;;;;;;;8.52;100.00;100638.09;10495012;28;20079;-80
2022/12/22 17:46:33;;;;;;;2.35;2.15;;;;;;;8.50;100.00;100643.97;10481825;28;20045;-80
2022/12/22 17:51:35;;;;;;;2.03;1.63;;;;;;;8.71;100.00;100623.19;10470118;28;20047;-80
2022/12/22 17:56:37;;;;;;;2.80;1.83;;;;;;;8.54;100.00;100604.75;10480379;28;20048;-80
2022/12/22 18:01:39;;;;;;;4.03;1.50;;;;;;;8.55;100.00;100609.91;10462209;28;20044;-80
2022/12/22 18:06:41;;;;;;;1.60;1.48;;;;;;;8.57;100.00;100605.69;10481096;28;20048;-80
2022/12/22 18:11:43;;;;;;;3.55;1.45;;;;;;;8.77;100.00;100599.41;10491739;28;20067;-80
2022/12/22 18:16:46;;;;;;;1.95;0.90;;;;;;;8.69;100.00;100583.75;10477913;28;20055;-80
2022/12/22 18:21:48;;;;;;;0.73;0.73;;;;;;;8.55;100.00;100580.81;10489648;28;20047;-79
2022/12/22 18:26:51;;;;;;;1.40;1.05;;;;;;;8.59;100.00;100581.78;10484463;28;20036;-80
2022/12/22 18:31:54;;;;;;;0.30;0.30;;;;;;;8.52;100.00;100656.06;10466765;28;20098;-79
2022/12/22 18:36:57;;;;;;;1.33;1.17;;;;;;;8.60;100.00;100650.28;10469449;28;20037;-80
2022/12/22 18:41:59;;;;;;;0.32;0.32;;;;;;;8.60;100.00;100645.16;10476060;28;20119;-80
2022/12/22 18:47:07;;;;;;;0.93;0.90;;;;;;;8.78;100.00;100632.81;10484064;28;20052;-80
2022/12/22 18:52:17;;;;;;;0.95;0.57;;;;;;;8.75;100.00;100635.28;10465955;28;21196;-80
2022/12/22 18:57:19;;;;;;;5.63;1.00;;;;;;;8.73;100.00;100636.97;10478275;28;20094;-80
2022/12/22 19:02:23;;;;;;;1.45;0.50;;;;;;;8.75;100.00;100639.56;10462391;28;20036;-79
2022/12/22 19:07:30;;;;;;;2.15;1.08;;;;;;;8.86;100.00;100636.50;10483424;28;20052;-80
2022/12/22 19:12:31;;;;;;;1.73;1.13;;;;;;;8.73;100.00;100626.69;10493348;28;20492;-79
2022/12/22 19:17:33;;;;;;;1.33;1.10;;;;;;;8.85;100.00;100629.59;10485886;28;20052;-80
2022/12/22 19:22:34;;;;;;;1.58;0.80;;;;;;;8.89;100.00;100634.03;10460797;28;20045;-80
2022/12/22 19:27:36;;;;;;;1.67;1.13;;;;;;;9.08;100.00;100624.25;10468762;28;20102;-79
2022/12/22 19:32:41;;;;;;;0.47;0.38;;;;;;;9.04;100.00;100625.00;10455431;28;20040;-80
2022/12/22 19:37:45;;;;;;;1.50;0.88;;;;;;;9.26;100.00;100629.00;10462957;28;20135;-80
2022/12/22 19:42:50;;;;;;;0.45;0.35;;;;;;;9.24;100.00;100620.38;10445252;28;20079;-80
2022/12/22 19:47:52;;;;;;;1.67;0.75;;;;;;;9.43;100.00;100621.72;10458888;28;20099;-80
2022/12/22 19:52:56;;;;;;;1.30;0.68;;;;;;;9.24;100.00;100619.53;10488305;28;20036;-79
2022/12/22 19:57:58;;;;;;;2.10;0.82;;;;;;;9.34;100.00;100616.38;10481675;28;20554;-79
2022/12/22 20:03:00;;;;;;;0.52;0.25;;;;;;;9.50;100.00;100613.34;10481716;28;20102;-79
2022/12/22 20:08:02;;;;;;;1.33;0.93;;;;;;;9.47;100.00;100608.13;10499121;28;20086;-79
2022/12/22 20:13:10;;;;;;;1.15;0.85;;;;;;;9.61;100.00;100615.31;10465760;28;20051;-79
2022/12/22 20:18:19;;;;;;;0.52;0.52;;;;;;;9.82;100.00;100603.00;10512088;28;20047;-81
2022/12/22 20:23:23;;;;;;;0.43;0.43;;;;;;;9.97;100.00;100609.34;10511344;28;20064;-79
2022/12/22 20:28:27;;;;;;;4.65;0.80;;;;;;;9.91;100.00;100610.06;10487799;28;20055;-80
2022/12/22 20:33:29;;;;;;;3.88;2.67;;;;;;;9.96;100.00;100592.16;10522174;28;20047;-80
2022/12/22 20:38:35;;;;;;;0.50;0.50;;;;;;;10.34;100.00;100611.91;10501949;28;20131;-80
2022/12/22 20:43:37;;;;;;;0.30;0.20;;;;;;;10.12;100.00;100589.09;10480723;28;20467;-80
2022/12/22 20:48:42;;;;;;;0.28;0.25;;;;;;;10.42;100.00;100588.06;10479295;28;20052;-80
2022/12/22 20:53:45;;;;;;;0.65;0.55;;;;;;;10.35;100.00;100591.31;10462418;28;20131;-79
2022/12/22 20:58:47;;;;;;;2.22;1.33;;;;;;;10.47;100.00;100590.75;10478728;28;20056;-79
2022/12/22 21:03:49;;;;;;;0.47;0.40;;;;;;;10.50;100.00;100590.78;10479520;28;20037;-80
2022/12/22 21:08:52;;;;;;;4.95;0.82;;;;;;;10.59;100.00;100588.41;10489155;28;20052;-80
2022/12/22 21:13:55;;;;;;;1.10;0.55;;;;;;;10.66;100.00;100575.66;10496380;28;20044;-79
2022/12/22 21:18:57;;;;;;;0.30;0.28;;;;;;;10.79;100.00;100570.78;10487690;28;20496;-79
2022/12/22 21:23:59;;;;;;;0.10;0.10;;;;;;;10.76;100.00;100569.88;10478779;28;20045;-78
2022/12/22 21:29:06;;;;;;;0.25;0.25;;;;;;;10.79;100.00;100570.78;10478513;28;20500;-78
2022/12/22 21:34:11;;;;;;;0.70;0.38;;;;;;;10.71;100.00;100571.50;10462643;28;20128;-77
2022/12/22 21:39:24;;;;;;;0.25;0.22;;;;;;;10.90;100.00;100570.16;10487178;28;20047;-77
2022/12/22 21:44:31;;;;;;;1.85;0.77;;;;;;;10.78;100.00;100571.63;10469919;28;20036;-78
2022/12/22 21:49:34;;;;;;;0.38;0.30;;;;;;;10.86;100.00;100570.91;10494727;28;20068;-78
2022/12/22 21:54:36;;;;;;;0.85;0.65;;;;;;;10.65;100.00;100590.25;10495859;28;20040;-79
2022/12/22 21:59:40;;;;;;;0.30;0.30;;;;;;;10.72;100.00;100592.13;10477893;28;20055;-78
2022/12/22 22:04:45;;;;;;;0.20;0.17;;;;;;;10.81;100.00;100596.59;10478296;28;20052;-78
2022/12/22 22:09:55;;;;;;;1.38;0.75;;;;;;;10.77;100.00;100585.34;10493863;28;20475;-79
2022/12/22 22:15:01;;;;;;;0.47;0.35;;;;;;;10.75;100.00;100589.63;10504042;28;20110;-79
2022/12/22 22:20:05;;;;;;;1.45;0.70;;;;;;;10.57;100.00;100586.66;10503212;28;20065;-80
2022/12/22 22:25:07;;;;;;;0.88;0.57;;;;;;;10.71;100.00;100602.41;10485187;28;20041;-79
2022/12/22 22:30:21;;;;;;;0.22;0.22;;;;;;;10.71;100.00;100605.00;10484869;28;20044;-78
2022/12/22 22:35:24;;;;;;;0.40;0.35;;;;;;;10.71;100.00;100605.84;10489309;28;20044;-80
2022/12/22 22:40:26;;;;;;;1.55;0.85;;;;;;;10.72;100.00;100597.28;10516564;28;20040;-80
2022/12/22 22:45:27;;;;;;;3.38;1.25;;;;;;;10.71;100.00;100605.84;10544888;28;20071;-78
2022/12/22 22:50:29;;;;;;;0.40;0.40;;;;;;;10.66;100.00;100594.59;10501103;28;20114;-79
2022/12/22 22:55:31;;;;;;;1.35;1.23;;;;;;;10.76;100.00;100608.50;10484586;28;20219;-79
2022/12/22 23:00:33;;;;;;;2.78;1.65;;;;;;;10.81;100.00;100594.00;10502009;28;20435;-79
2022/12/22 23:05:36;;;;;;;1.67;1.30;;;;;;;10.78;100.00;100587.09;10466899;28;20040;-78
2022/12/22 23:10:38;;;;;;;1.73;0.65;;;;;;;10.85;100.00;100587.22;10500360;28;20087;-79
2022/12/22 23:15:58;;;;;;;24.58;1.27;;;;;;;10.71;100.00;100574.94;10501551;28;20407;-79
2022/12/22 23:21:55;;;;;;;0.77;0.60;;;;;;;10.82;100.00;100571.69;10465930;28;20477;-79
2022/12/22 23:26:57;;;;;;;28.67;1.30;;;;;;;10.78;100.00;100563.91;10470285;28;20048;-80
2022/12/22 23:32:24;;;;;;;1.42;1.00;;;;;;;10.72;100.00;100575.81;10442281;28;20079;-80
2022/12/22 23:37:26;;;;;;;0.47;0.47;;;;;;;10.73;100.00;100574.94;10442398;28;20048;-80
2022/12/22 23:42:27;;;;;;;2.88;1.83;;;;;;;10.72;100.00;100571.50;10441731;28;20041;-80
2022/12/22 23:47:29;;;;;;;0.57;0.40;;;;;;;10.75;100.00;100566.44;10497959;28;20095;-80
2022/12/22 23:52:30;;;;;;;0.20;0.08;;;;;;;10.64;100.00;100557.59;10482513;28;20040;-80
2022/12/22 23:57:32;;;;;;;0.47;0.47;;;;;;;10.75;100.00;100581.91;10493686;28;20075;-80
